sensor_id;sensor_type;location;lat;lon;timestamp;P1;durP1;ratioP1;P2;durP2;ratioP2
3523;SDS011;1776;53.330;11.498;2023-06-10T00:01:40;7.43;;;3.40;;
3523;SDS011;1776;53.330;11.498;2023-06-10T00:04:06;7.20;;;3.43;;
3523;SDS011;1776;53.330;11.498;2023-06-10T00:06:32;13.77;;;3.77;;
3523;SDS011;1776;53.330;11.498;2023-06-10T00:09:04;6.13;;;2.80;;
3523;SDS011;1776;53.330;11.498;2023-06-10T00:11:33;7.07;;;3.20;;
3523;SDS011;1776;53.330;11.498;2023-06-10T00:13:59;9.80;;;3.60;;
3523;SDS011;1776;53.330;11.498;2023-06-10T00:16:24;5.30;;;3.30;;
3523;SDS011;1776;53.330;11.498;2023-06-10T00:18:50;5.70;;;3.10;;
3523;SDS011;1776;53.330;11.498;2023-06-10T00:21:16;12.73;;;4.00;;
3523;SDS011;1776;53.330;11.498;2023-06-10T00:23:41;4.30;;;2.90;;
3523;SDS011;1776;53.330;11.498;2023-06-10T00:26:07;4.30;;;3.33;;
3523;SDS011;1776;53.330;11.498;2023-06-10T00:28:32;9.50;;;3.80;;
3523;SDS011;1776;53.330;11.498;2023-06-10T00:30:57;4.73;;;2.93;;
3523;SDS011;1776;53.330;11.498;2023-06-10T00:33:22;6.40;;;3.30;;
3523;SDS011;1776;53.330;11.498;2023-06-10T00:35:48;6.53;;;3.20;;
3523;SDS011;1776;53.330;11.498;2023-06-10T00:38:13;5.27;;;2.93;;
3523;SDS011;1776;53.330;11.498;2023-06-10T00:40:40;9.50;;;2.90;;
3523;SDS011;1776;53.330;11.498;2023-06-10T00:43:08;10.20;;;3.20;;
3523;SDS011;1776;53.330;11.498;2023-06-10T00:45:34;9.03;;;2.80;;
3523;SDS011;1776;53.330;11.498;2023-06-10T00:48:00;7.30;;;2.73;;
3523;SDS011;1776;53.330;11.498;2023-06-10T00:50:26;4.60;;;3.17;;
3523;SDS011;1776;53.330;11.498;2023-06-10T00:52:52;6.10;;;2.97;;
3523;SDS011;1776;53.330;11.498;2023-06-10T00:55:19;5.60;;;2.57;;
3523;SDS011;1776;53.330;11.498;2023-06-10T00:57:45;11.40;;;3.53;;
3523;SDS011;1776;53.330;11.498;2023-06-10T01:00:13;5.30;;;2.67;;
3523;SDS011;1776;53.330;11.498;2023-06-10T01:02:40;7.20;;;3.80;;
3523;SDS011;1776;53.330;11.498;2023-06-10T01:05:05;6.17;;;3.20;;
3523;SDS011;1776;53.330;11.498;2023-06-10T01:07:34;7.63;;;3.40;;
3523;SDS011;1776;53.330;11.498;2023-06-10T01:10:20;10.20;;;4.27;;
3523;SDS011;1776;53.330;11.498;2023-06-10T01:13:03;9.43;;;2.93;;
3523;SDS011;1776;53.330;11.498;2023-06-10T01:15:32;5.80;;;3.20;;
3523;SDS011;1776;53.330;11.498;2023-06-10T01:18:02;7.87;;;2.97;;
3523;SDS011;1776;53.330;11.498;2023-06-10T01:20:33;5.20;;;3.37;;
3523;SDS011;1776;53.330;11.498;2023-06-10T01:23:00;5.33;;;3.20;;
3523;SDS011;1776;53.330;11.498;2023-06-10T01:25:28;4.00;;;2.50;;
3523;SDS011;1776;53.330;11.498;2023-06-10T01:27:57;3.13;;;2.43;;
3523;SDS011;1776;53.330;11.498;2023-06-10T01:30:31;11.73;;;3.33;;
3523;SDS011;1776;53.330;11.498;2023-06-10T01:33:02;4.87;;;3.10;;
3523;SDS011;1776;53.330;11.498;2023-06-10T01:35:32;7.40;;;3.33;;
3523;SDS011;1776;53.330;11.498;2023-06-10T01:38:01;9.80;;;3.00;;
3523;SDS011;1776;53.330;11.498;2023-06-10T01:40:28;8.03;;;2.77;;
3523;SDS011;1776;53.330;11.498;2023-06-10T01:42:54;6.43;;;3.33;;
3523;SDS011;1776;53.330;11.498;2023-06-10T01:45:19;7.70;;;3.00;;
3523;SDS011;1776;53.330;11.498;2023-06-10T01:47:45;4.63;;;3.47;;
3523;SDS011;1776;53.330;11.498;2023-06-10T01:50:10;6.63;;;2.90;;
3523;SDS011;1776;53.330;11.498;2023-06-10T01:52:35;6.63;;;2.60;;
3523;SDS011;1776;53.330;11.498;2023-06-10T01:55:01;9.17;;;3.10;;
3523;SDS011;1776;53.330;11.498;2023-06-10T01:57:26;6.10;;;3.00;;
3523;SDS011;1776;53.330;11.498;2023-06-10T01:59:51;4.40;;;3.10;;
3523;SDS011;1776;53.330;11.498;2023-06-10T02:02:16;3.77;;;3.10;;
3523;SDS011;1776;53.330;11.498;2023-06-10T02:04:41;4.73;;;2.97;;
3523;SDS011;1776;53.330;11.498;2023-06-10T02:07:07;5.37;;;2.33;;
3523;SDS011;1776;53.330;11.498;2023-06-10T02:09:32;5.33;;;2.47;;
3523;SDS011;1776;53.330;11.498;2023-06-10T02:12:00;11.13;;;2.73;;
3523;SDS011;1776;53.330;11.498;2023-06-10T02:14:25;6.23;;;2.37;;
3523;SDS011;1776;53.330;11.498;2023-06-10T02:16:50;6.70;;;2.30;;
3523;SDS011;1776;53.330;11.498;2023-06-10T02:19:16;6.67;;;2.70;;
3523;SDS011;1776;53.330;11.498;2023-06-10T02:21:42;8.23;;;2.50;;
3523;SDS011;1776;53.330;11.498;2023-06-10T02:24:07;7.13;;;2.40;;
3523;SDS011;1776;53.330;11.498;2023-06-10T02:26:33;7.43;;;2.50;;
3523;SDS011;1776;53.330;11.498;2023-06-10T02:28:58;7.77;;;2.67;;
3523;SDS011;1776;53.330;11.498;2023-06-10T02:31:23;7.47;;;3.20;;
3523;SDS011;1776;53.330;11.498;2023-06-10T02:33:50;5.60;;;2.67;;
3523;SDS011;1776;53.330;11.498;2023-06-10T02:36:15;6.43;;;3.40;;
3523;SDS011;1776;53.330;11.498;2023-06-10T02:38:41;5.10;;;2.13;;
3523;SDS011;1776;53.330;11.498;2023-06-10T02:41:06;6.93;;;2.63;;
3523;SDS011;1776;53.330;11.498;2023-06-10T02:43:32;12.43;;;3.43;;
3523;SDS011;1776;53.330;11.498;2023-06-10T02:45:57;6.23;;;2.97;;
3523;SDS011;1776;53.330;11.498;2023-06-10T02:48:25;10.20;;;2.90;;
3523;SDS011;1776;53.330;11.498;2023-06-10T02:50:51;8.80;;;2.80;;
3523;SDS011;1776;53.330;11.498;2023-06-10T02:53:17;8.07;;;2.37;;
3523;SDS011;1776;53.330;11.498;2023-06-10T02:55:42;9.27;;;2.10;;
3523;SDS011;1776;53.330;11.498;2023-06-10T02:58:07;7.90;;;2.83;;
3523;SDS011;1776;53.330;11.498;2023-06-10T03:00:33;4.33;;;2.70;;
3523;SDS011;1776;53.330;11.498;2023-06-10T03:02:58;7.07;;;2.60;;
3523;SDS011;1776;53.330;11.498;2023-06-10T03:05:25;6.03;;;2.90;;
3523;SDS011;1776;53.330;11.498;2023-06-10T03:07:50;5.00;;;2.33;;
3523;SDS011;1776;53.330;11.498;2023-06-10T03:10:16;6.60;;;2.67;;
3523;SDS011;1776;53.330;11.498;2023-06-10T03:12:41;4.60;;;2.40;;
3523;SDS011;1776;53.330;11.498;2023-06-10T03:15:06;6.00;;;2.87;;
3523;SDS011;1776;53.330;11.498;2023-06-10T03:17:32;9.70;;;3.07;;
3523;SDS011;1776;53.330;11.498;2023-06-10T03:19:57;16.00;;;2.87;;
3523;SDS011;1776;53.330;11.498;2023-06-10T03:22:22;4.77;;;2.47;;
3523;SDS011;1776;53.330;11.498;2023-06-10T03:24:47;8.97;;;2.60;;
3523;SDS011;1776;53.330;11.498;2023-06-10T03:27:15;5.63;;;2.60;;
3523;SDS011;1776;53.330;11.498;2023-06-10T03:29:41;6.53;;;3.00;;
3523;SDS011;1776;53.330;11.498;2023-06-10T03:32:06;4.53;;;2.80;;
3523;SDS011;1776;53.330;11.498;2023-06-10T03:34:32;4.53;;;2.07;;
3523;SDS011;1776;53.330;11.498;2023-06-10T03:36:58;6.70;;;2.77;;
3523;SDS011;1776;53.330;11.498;2023-06-10T03:39:25;8.67;;;3.17;;
3523;SDS011;1776;53.330;11.498;2023-06-10T03:41:54;5.77;;;2.27;;
3523;SDS011;1776;53.330;11.498;2023-06-10T03:44:19;17.23;;;3.67;;
3523;SDS011;1776;53.330;11.498;2023-06-10T03:46:45;6.37;;;2.77;;
3523;SDS011;1776;53.330;11.498;2023-06-10T03:49:10;6.97;;;2.20;;
3523;SDS011;1776;53.330;11.498;2023-06-10T03:51:36;8.80;;;2.70;;
3523;SDS011;1776;53.330;11.498;2023-06-10T03:54:01;7.07;;;2.40;;
3523;SDS011;1776;53.330;11.498;2023-06-10T03:56:27;4.97;;;2.40;;
3523;SDS011;1776;53.330;11.498;2023-06-10T03:58:53;6.27;;;2.83;;
3523;SDS011;1776;53.330;11.498;2023-06-10T04:01:19;9.60;;;2.70;;
3523;SDS011;1776;53.330;11.498;2023-06-10T04:03:45;9.80;;;2.40;;
3523;SDS011;1776;53.330;11.498;2023-06-10T04:06:13;3.97;;;2.03;;
3523;SDS011;1776;53.330;11.498;2023-06-10T04:08:38;5.33;;;2.20;;
3523;SDS011;1776;53.330;11.498;2023-06-10T04:11:04;5.67;;;2.97;;
3523;SDS011;1776;53.330;11.498;2023-06-10T04:13:29;7.30;;;3.00;;
3523;SDS011;1776;53.330;11.498;2023-06-10T04:15:54;9.20;;;2.83;;
3523;SDS011;1776;53.330;11.498;2023-06-10T04:18:20;3.80;;;2.70;;
3523;SDS011;1776;53.330;11.498;2023-06-10T04:20:46;8.27;;;2.60;;
3523;SDS011;1776;53.330;11.498;2023-06-10T04:23:11;7.90;;;2.70;;
3523;SDS011;1776;53.330;11.498;2023-06-10T04:25:37;7.27;;;3.07;;
3523;SDS011;1776;53.330;11.498;2023-06-10T04:28:02;6.43;;;2.60;;
3523;SDS011;1776;53.330;11.498;2023-06-10T04:30:27;5.50;;;2.70;;
3523;SDS011;1776;53.330;11.498;2023-06-10T04:32:53;5.47;;;2.40;;
3523;SDS011;1776;53.330;11.498;2023-06-10T04:35:19;5.90;;;3.13;;
3523;SDS011;1776;53.330;11.498;2023-06-10T04:37:44;4.87;;;2.63;;
3523;SDS011;1776;53.330;11.498;2023-06-10T04:40:09;5.00;;;3.17;;
3523;SDS011;1776;53.330;11.498;2023-06-10T04:42:35;10.80;;;2.77;;
3523;SDS011;1776;53.330;11.498;2023-06-10T04:45:01;8.83;;;2.70;;
3523;SDS011;1776;53.330;11.498;2023-06-10T04:47:27;4.33;;;2.20;;
3523;SDS011;1776;53.330;11.498;2023-06-10T04:49:53;6.97;;;2.90;;
3523;SDS011;1776;53.330;11.498;2023-06-10T04:52:18;7.50;;;2.40;;
3523;SDS011;1776;53.330;11.498;2023-06-10T04:54:43;5.63;;;2.57;;
3523;SDS011;1776;53.330;11.498;2023-06-10T04:57:09;7.10;;;2.27;;
3523;SDS011;1776;53.330;11.498;2023-06-10T04:59:36;4.00;;;2.23;;
3523;SDS011;1776;53.330;11.498;2023-06-10T05:02:03;6.70;;;2.87;;
3523;SDS011;1776;53.330;11.498;2023-06-10T05:04:29;3.07;;;1.93;;
3523;SDS011;1776;53.330;11.498;2023-06-10T05:06:55;13.70;;;3.07;;
3523;SDS011;1776;53.330;11.498;2023-06-10T05:09:20;5.10;;;2.50;;
3523;SDS011;1776;53.330;11.498;2023-06-10T05:11:45;4.70;;;1.97;;
3523;SDS011;1776;53.330;11.498;2023-06-10T05:14:11;4.40;;;2.20;;
3523;SDS011;1776;53.330;11.498;2023-06-10T05:16:36;8.73;;;2.37;;
3523;SDS011;1776;53.330;11.498;2023-06-10T05:19:02;4.07;;;2.47;;
3523;SDS011;1776;53.330;11.498;2023-06-10T05:21:28;7.57;;;2.60;;
3523;SDS011;1776;53.330;11.498;2023-06-10T05:23:53;7.03;;;2.47;;
3523;SDS011;1776;53.330;11.498;2023-06-10T05:26:18;8.47;;;2.80;;
3523;SDS011;1776;53.330;11.498;2023-06-10T05:28:44;10.10;;;2.17;;
3523;SDS011;1776;53.330;11.498;2023-06-10T05:31:09;7.60;;;2.20;;
3523;SDS011;1776;53.330;11.498;2023-06-10T05:33:34;3.80;;;2.33;;
3523;SDS011;1776;53.330;11.498;2023-06-10T05:36:00;4.80;;;2.27;;
3523;SDS011;1776;53.330;11.498;2023-06-10T05:38:25;5.70;;;2.63;;
3523;SDS011;1776;53.330;11.498;2023-06-10T05:40:50;12.90;;;3.07;;
3523;SDS011;1776;53.330;11.498;2023-06-10T05:43:15;4.40;;;2.40;;
3523;SDS011;1776;53.330;11.498;2023-06-10T05:45:41;3.50;;;2.50;;
3523;SDS011;1776;53.330;11.498;2023-06-10T05:48:07;5.27;;;2.93;;
3523;SDS011;1776;53.330;11.498;2023-06-10T05:50:33;4.67;;;2.27;;
3523;SDS011;1776;53.330;11.498;2023-06-10T05:53:03;8.53;;;2.60;;
3523;SDS011;1776;53.330;11.498;2023-06-10T05:55:28;6.10;;;2.60;;
3523;SDS011;1776;53.330;11.498;2023-06-10T05:57:59;5.60;;;2.17;;
3523;SDS011;1776;53.330;11.498;2023-06-10T06:00:25;9.30;;;3.00;;
3523;SDS011;1776;53.330;11.498;2023-06-10T06:02:51;6.73;;;2.70;;
3523;SDS011;1776;53.330;11.498;2023-06-10T06:05:17;11.53;;;2.90;;
3523;SDS011;1776;53.330;11.498;2023-06-10T06:07:43;10.13;;;2.67;;
3523;SDS011;1776;53.330;11.498;2023-06-10T06:10:08;7.30;;;2.60;;
3523;SDS011;1776;53.330;11.498;2023-06-10T06:12:33;7.40;;;2.80;;
3523;SDS011;1776;53.330;11.498;2023-06-10T06:14:59;10.70;;;3.77;;
3523;SDS011;1776;53.330;11.498;2023-06-10T06:17:24;4.83;;;2.20;;
3523;SDS011;1776;53.330;11.498;2023-06-10T06:19:49;11.47;;;2.80;;
3523;SDS011;1776;53.330;11.498;2023-06-10T06:22:14;10.37;;;3.40;;
3523;SDS011;1776;53.330;11.498;2023-06-10T06:24:40;7.63;;;3.10;;
3523;SDS011;1776;53.330;11.498;2023-06-10T06:27:05;11.00;;;2.97;;
3523;SDS011;1776;53.330;11.498;2023-06-10T06:29:30;5.30;;;2.50;;
3523;SDS011;1776;53.330;11.498;2023-06-10T06:31:56;3.93;;;2.30;;
3523;SDS011;1776;53.330;11.498;2023-06-10T06:34:21;8.60;;;2.33;;
3523;SDS011;1776;53.330;11.498;2023-06-10T06:36:46;5.30;;;3.13;;
3523;SDS011;1776;53.330;11.498;2023-06-10T06:39:11;7.43;;;3.47;;
3523;SDS011;1776;53.330;11.498;2023-06-10T06:41:36;9.37;;;2.80;;
3523;SDS011;1776;53.330;11.498;2023-06-10T06:44:02;7.47;;;3.10;;
3523;SDS011;1776;53.330;11.498;2023-06-10T06:46:27;5.23;;;2.80;;
3523;SDS011;1776;53.330;11.498;2023-06-10T06:48:53;7.53;;;3.70;;
3523;SDS011;1776;53.330;11.498;2023-06-10T06:51:18;8.70;;;3.30;;
3523;SDS011;1776;53.330;11.498;2023-06-10T06:53:43;10.97;;;3.63;;
3523;SDS011;1776;53.330;11.498;2023-06-10T06:56:11;5.50;;;2.80;;
3523;SDS011;1776;53.330;11.498;2023-06-10T06:58:37;10.77;;;2.90;;
3523;SDS011;1776;53.330;11.498;2023-06-10T07:01:02;9.70;;;2.93;;
3523;SDS011;1776;53.330;11.498;2023-06-10T07:03:27;7.63;;;2.60;;
3523;SDS011;1776;53.330;11.498;2023-06-10T07:05:53;6.43;;;3.20;;
3523;SDS011;1776;53.330;11.498;2023-06-10T07:08:18;7.13;;;3.27;;
3523;SDS011;1776;53.330;11.498;2023-06-10T07:10:43;6.73;;;2.70;;
3523;SDS011;1776;53.330;11.498;2023-06-10T07:13:09;9.40;;;3.10;;
3523;SDS011;1776;53.330;11.498;2023-06-10T07:15:34;9.47;;;3.73;;
3523;SDS011;1776;53.330;11.498;2023-06-10T07:17:59;6.30;;;2.90;;
3523;SDS011;1776;53.330;11.498;2023-06-10T07:20:25;9.10;;;3.00;;
3523;SDS011;1776;53.330;11.498;2023-06-10T07:22:50;9.17;;;3.40;;
3523;SDS011;1776;53.330;11.498;2023-06-10T07:25:15;7.60;;;3.63;;
3523;SDS011;1776;53.330;11.498;2023-06-10T07:27:41;7.87;;;3.33;;
3523;SDS011;1776;53.330;11.498;2023-06-10T07:30:06;9.53;;;3.10;;
3523;SDS011;1776;53.330;11.498;2023-06-10T07:32:33;11.77;;;3.43;;
3523;SDS011;1776;53.330;11.498;2023-06-10T07:34:59;6.77;;;3.03;;
3523;SDS011;1776;53.330;11.498;2023-06-10T07:37:24;4.53;;;2.73;;
3523;SDS011;1776;53.330;11.498;2023-06-10T07:39:49;10.70;;;3.73;;
3523;SDS011;1776;53.330;11.498;2023-06-10T07:42:15;7.37;;;3.30;;
3523;SDS011;1776;53.330;11.498;2023-06-10T07:44:40;6.97;;;3.23;;
3523;SDS011;1776;53.330;11.498;2023-06-10T07:47:05;11.47;;;4.10;;
3523;SDS011;1776;53.330;11.498;2023-06-10T07:49:31;5.13;;;3.10;;
3523;SDS011;1776;53.330;11.498;2023-06-10T07:51:56;9.50;;;4.03;;
3523;SDS011;1776;53.330;11.498;2023-06-10T07:54:22;7.97;;;3.50;;
3523;SDS011;1776;53.330;11.498;2023-06-10T07:56:47;7.20;;;3.20;;
3523;SDS011;1776;53.330;11.498;2023-06-10T07:59:13;9.90;;;3.50;;
3523;SDS011;1776;53.330;11.498;2023-06-10T08:01:38;10.60;;;3.73;;
3523;SDS011;1776;53.330;11.498;2023-06-10T08:04:04;5.23;;;3.20;;
3523;SDS011;1776;53.330;11.498;2023-06-10T08:06:30;10.30;;;3.90;;
3523;SDS011;1776;53.330;11.498;2023-06-10T08:08:55;8.10;;;4.17;;
3523;SDS011;1776;53.330;11.498;2023-06-10T08:11:20;8.40;;;3.57;;
3523;SDS011;1776;53.330;11.498;2023-06-10T08:13:46;7.80;;;3.53;;
3523;SDS011;1776;53.330;11.498;2023-06-10T08:16:11;10.50;;;3.60;;
3523;SDS011;1776;53.330;11.498;2023-06-10T08:18:36;9.40;;;4.00;;
3523;SDS011;1776;53.330;11.498;2023-06-10T08:21:01;11.63;;;5.00;;
3523;SDS011;1776;53.330;11.498;2023-06-10T08:23:27;5.63;;;3.07;;
3523;SDS011;1776;53.330;11.498;2023-06-10T08:25:52;10.23;;;4.67;;
3523;SDS011;1776;53.330;11.498;2023-06-10T08:28:17;7.77;;;3.13;;
3523;SDS011;1776;53.330;11.498;2023-06-10T08:30:43;4.90;;;3.87;;
3523;SDS011;1776;53.330;11.498;2023-06-10T08:33:08;10.23;;;3.97;;
3523;SDS011;1776;53.330;11.498;2023-06-10T08:35:33;6.50;;;4.80;;
3523;SDS011;1776;53.330;11.498;2023-06-10T08:37:59;7.93;;;4.40;;
3523;SDS011;1776;53.330;11.498;2023-06-10T08:40:24;9.70;;;3.93;;
3523;SDS011;1776;53.330;11.498;2023-06-10T08:42:53;9.00;;;3.97;;
3523;SDS011;1776;53.330;11.498;2023-06-10T08:45:34;8.17;;;4.70;;
3523;SDS011;1776;53.330;11.498;2023-06-10T08:48:01;9.37;;;3.90;;
3523;SDS011;1776;53.330;11.498;2023-06-10T08:50:29;9.77;;;3.87;;
3523;SDS011;1776;53.330;11.498;2023-06-10T08:52:57;6.50;;;3.70;;
3523;SDS011;1776;53.330;11.498;2023-06-10T08:55:27;6.67;;;4.20;;
3523;SDS011;1776;53.330;11.498;2023-06-10T08:57:55;8.53;;;4.27;;
3523;SDS011;1776;53.330;11.498;2023-06-10T09:00:21;9.97;;;4.80;;
3523;SDS011;1776;53.330;11.498;2023-06-10T09:02:47;5.33;;;4.17;;
3523;SDS011;1776;53.330;11.498;2023-06-10T09:05:13;6.10;;;4.57;;
3523;SDS011;1776;53.330;11.498;2023-06-10T09:07:38;7.67;;;5.53;;
3523;SDS011;1776;53.330;11.498;2023-06-10T09:10:04;5.07;;;3.50;;
3523;SDS011;1776;53.330;11.498;2023-06-10T09:12:32;10.13;;;4.67;;
3523;SDS011;1776;53.330;11.498;2023-06-10T09:14:58;7.73;;;4.70;;
3523;SDS011;1776;53.330;11.498;2023-06-10T09:17:24;7.20;;;4.20;;
3523;SDS011;1776;53.330;11.498;2023-06-10T09:19:49;8.83;;;4.70;;
3523;SDS011;1776;53.330;11.498;2023-06-10T09:22:18;8.40;;;4.60;;
3523;SDS011;1776;53.330;11.498;2023-06-10T09:24:44;8.33;;;5.03;;
3523;SDS011;1776;53.330;11.498;2023-06-10T09:27:11;4.93;;;4.20;;
3523;SDS011;1776;53.330;11.498;2023-06-10T09:29:52;5.73;;;4.60;;
3523;SDS011;1776;53.330;11.498;2023-06-10T09:32:19;4.80;;;4.30;;
3523;SDS011;1776;53.330;11.498;2023-06-10T09:34:45;5.40;;;4.27;;
3523;SDS011;1776;53.330;11.498;2023-06-10T09:37:11;9.97;;;4.93;;
3523;SDS011;1776;53.330;11.498;2023-06-10T09:39:38;4.97;;;4.53;;
3523;SDS011;1776;53.330;11.498;2023-06-10T09:42:17;6.80;;;4.73;;
3523;SDS011;1776;53.330;11.498;2023-06-10T09:44:48;10.77;;;5.37;;
3523;SDS011;1776;53.330;11.498;2023-06-10T09:47:20;8.00;;;4.40;;
3523;SDS011;1776;53.330;11.498;2023-06-10T09:49:47;6.80;;;4.80;;
3523;SDS011;1776;53.330;11.498;2023-06-10T09:52:12;9.23;;;4.57;;
3523;SDS011;1776;53.330;11.498;2023-06-10T09:54:38;7.03;;;4.63;;
3523;SDS011;1776;53.330;11.498;2023-06-10T09:57:07;7.83;;;5.23;;
3523;SDS011;1776;53.330;11.498;2023-06-10T09:59:33;10.60;;;5.43;;
3523;SDS011;1776;53.330;11.498;2023-06-10T10:01:59;5.30;;;4.77;;
3523;SDS011;1776;53.330;11.498;2023-06-10T10:04:25;9.33;;;5.87;;
3523;SDS011;1776;53.330;11.498;2023-06-10T10:06:52;7.50;;;5.17;;
3523;SDS011;1776;53.330;11.498;2023-06-10T10:09:17;9.00;;;5.13;;
3523;SDS011;1776;53.330;11.498;2023-06-10T10:11:43;7.87;;;5.27;;
3523;SDS011;1776;53.330;11.498;2023-06-10T10:14:08;10.47;;;5.40;;
3523;SDS011;1776;53.330;11.498;2023-06-10T10:16:39;7.30;;;4.67;;
3523;SDS011;1776;53.330;11.498;2023-06-10T10:19:14;7.00;;;5.60;;
3523;SDS011;1776;53.330;11.498;2023-06-10T10:21:50;6.40;;;5.80;;
3523;SDS011;1776;53.330;11.498;2023-06-10T10:24:23;4.93;;;3.93;;
3523;SDS011;1776;53.330;11.498;2023-06-10T10:26:55;6.80;;;6.10;;
3523;SDS011;1776;53.330;11.498;2023-06-10T10:29:29;5.67;;;5.17;;
3523;SDS011;1776;53.330;11.498;2023-06-10T10:31:57;5.83;;;4.83;;
3523;SDS011;1776;53.330;11.498;2023-06-10T10:37:22;9.97;;;5.67;;
3523;SDS011;1776;53.330;11.498;2023-06-10T10:39:47;7.43;;;5.10;;
3523;SDS011;1776;53.330;11.498;2023-06-10T10:42:13;7.73;;;5.67;;
3523;SDS011;1776;53.330;11.498;2023-06-10T10:44:40;8.30;;;5.07;;
3523;SDS011;1776;53.330;11.498;2023-06-10T10:47:09;5.93;;;5.07;;
3523;SDS011;1776;53.330;11.498;2023-06-10T10:49:36;7.53;;;5.43;;
3523;SDS011;1776;53.330;11.498;2023-06-10T10:52:02;7.77;;;5.30;;
3523;SDS011;1776;53.330;11.498;2023-06-10T10:54:35;5.53;;;4.73;;
3523;SDS011;1776;53.330;11.498;2023-06-10T10:57:15;8.87;;;5.30;;
3523;SDS011;1776;53.330;11.498;2023-06-10T11:02:15;5.27;;;4.67;;
3523;SDS011;1776;53.330;11.498;2023-06-10T11:04:46;7.33;;;6.30;;
3523;SDS011;1776;53.330;11.498;2023-06-10T11:07:13;6.93;;;5.00;;
3523;SDS011;1776;53.330;11.498;2023-06-10T11:09:57;7.10;;;5.40;;
3523;SDS011;1776;53.330;11.498;2023-06-10T11:15:10;12.20;;;5.70;;
3523;SDS011;1776;53.330;11.498;2023-06-10T11:17:36;10.23;;;6.47;;
3523;SDS011;1776;53.330;11.498;2023-06-10T11:20:01;6.37;;;4.90;;
3523;SDS011;1776;53.330;11.498;2023-06-10T11:22:27;8.03;;;5.67;;
3523;SDS011;1776;53.330;11.498;2023-06-10T11:24:53;6.00;;;4.63;;
3523;SDS011;1776;53.330;11.498;2023-06-10T11:27:19;8.03;;;5.77;;
3523;SDS011;1776;53.330;11.498;2023-06-10T11:32:28;7.13;;;5.50;;
3523;SDS011;1776;53.330;11.498;2023-06-10T11:34:55;9.00;;;5.60;;
3523;SDS011;1776;53.330;11.498;2023-06-10T11:37:21;7.93;;;5.60;;
3523;SDS011;1776;53.330;11.498;2023-06-10T11:39:47;13.63;;;6.20;;
3523;SDS011;1776;53.330;11.498;2023-06-10T11:42:17;8.27;;;5.80;;
3523;SDS011;1776;53.330;11.498;2023-06-10T11:44:49;18.93;;;5.03;;
3523;SDS011;1776;53.330;11.498;2023-06-10T11:47:15;8.80;;;6.73;;
3523;SDS011;1776;53.330;11.498;2023-06-10T11:49:40;6.30;;;5.03;;
3523;SDS011;1776;53.330;11.498;2023-06-10T11:52:06;9.40;;;5.63;;
3523;SDS011;1776;53.330;11.498;2023-06-10T11:54:31;7.30;;;5.90;;
3523;SDS011;1776;53.330;11.498;2023-06-10T11:56:57;7.10;;;5.23;;
3523;SDS011;1776;53.330;11.498;2023-06-10T11:59:26;10.43;;;5.63;;
3523;SDS011;1776;53.330;11.498;2023-06-10T12:01:52;9.67;;;5.37;;
3523;SDS011;1776;53.330;11.498;2023-06-10T12:04:17;6.97;;;5.70;;
3523;SDS011;1776;53.330;11.498;2023-06-10T12:06:53;6.20;;;5.50;;
3523;SDS011;1776;53.330;11.498;2023-06-10T12:09:25;7.60;;;6.07;;
3523;SDS011;1776;53.330;11.498;2023-06-10T12:11:54;7.53;;;5.60;;
3523;SDS011;1776;53.330;11.498;2023-06-10T12:20:01;6.60;;;5.30;;
3523;SDS011;1776;53.330;11.498;2023-06-10T12:22:37;6.90;;;5.73;;
3523;SDS011;1776;53.330;11.498;2023-06-10T12:25:06;8.20;;;6.80;;
3523;SDS011;1776;53.330;11.498;2023-06-10T12:27:33;6.57;;;6.00;;
3523;SDS011;1776;53.330;11.498;2023-06-10T12:29:59;8.33;;;5.97;;
3523;SDS011;1776;53.330;11.498;2023-06-10T12:32:43;5.87;;;5.10;;
3523;SDS011;1776;53.330;11.498;2023-06-10T12:35:10;6.83;;;5.20;;
3523;SDS011;1776;53.330;11.498;2023-06-10T12:37:38;6.97;;;5.77;;
3523;SDS011;1776;53.330;11.498;2023-06-10T12:40:04;8.20;;;5.70;;
3523;SDS011;1776;53.330;11.498;2023-06-10T12:42:37;6.90;;;5.77;;
3523;SDS011;1776;53.330;11.498;2023-06-10T12:45:03;9.17;;;5.83;;
3523;SDS011;1776;53.330;11.498;2023-06-10T12:47:32;8.50;;;5.20;;
3523;SDS011;1776;53.330;11.498;2023-06-10T12:50:00;7.07;;;6.23;;
3523;SDS011;1776;53.330;11.498;2023-06-10T12:52:26;8.80;;;5.47;;
3523;SDS011;1776;53.330;11.498;2023-06-10T12:54:52;9.30;;;6.23;;
3523;SDS011;1776;53.330;11.498;2023-06-10T12:57:19;9.53;;;6.40;;
3523;SDS011;1776;53.330;11.498;2023-06-10T12:59:44;6.10;;;5.00;;
3523;SDS011;1776;53.330;11.498;2023-06-10T13:02:15;7.23;;;5.90;;
3523;SDS011;1776;53.330;11.498;2023-06-10T13:04:41;6.97;;;6.13;;
3523;SDS011;1776;53.330;11.498;2023-06-10T13:07:08;6.33;;;5.73;;
3523;SDS011;1776;53.330;11.498;2023-06-10T13:09:33;12.07;;;6.83;;
3523;SDS011;1776;53.330;11.498;2023-06-10T13:11:58;9.63;;;6.37;;
3523;SDS011;1776;53.330;11.498;2023-06-10T13:14:25;7.97;;;6.10;;
3523;SDS011;1776;53.330;11.498;2023-06-10T13:16:50;9.10;;;6.13;;
3523;SDS011;1776;53.330;11.498;2023-06-10T13:19:15;7.00;;;5.80;;
3523;SDS011;1776;53.330;11.498;2023-06-10T13:21:41;6.37;;;5.77;;
3523;SDS011;1776;53.330;11.498;2023-06-10T13:24:06;9.33;;;5.60;;
3523;SDS011;1776;53.330;11.498;2023-06-10T13:26:32;12.70;;;6.30;;
3523;SDS011;1776;53.330;11.498;2023-06-10T13:28:57;7.40;;;6.70;;
3523;SDS011;1776;53.330;11.498;2023-06-10T13:31:22;8.03;;;6.00;;
3523;SDS011;1776;53.330;11.498;2023-06-10T13:33:48;7.13;;;6.20;;
3523;SDS011;1776;53.330;11.498;2023-06-10T13:36:13;6.90;;;6.17;;
3523;SDS011;1776;53.330;11.498;2023-06-10T13:38:38;7.47;;;6.00;;
3523;SDS011;1776;53.330;11.498;2023-06-10T13:41:04;9.43;;;5.93;;
3523;SDS011;1776;53.330;11.498;2023-06-10T13:43:29;12.43;;;6.80;;
3523;SDS011;1776;53.330;11.498;2023-06-10T13:45:54;14.10;;;6.80;;
3523;SDS011;1776;53.330;11.498;2023-06-10T13:48:20;7.77;;;6.30;;
3523;SDS011;1776;53.330;11.498;2023-06-10T13:50:45;9.20;;;6.53;;
3523;SDS011;1776;53.330;11.498;2023-06-10T13:53:11;7.30;;;6.10;;
3523;SDS011;1776;53.330;11.498;2023-06-10T13:55:37;7.57;;;6.20;;
3523;SDS011;1776;53.330;11.498;2023-06-10T13:58:02;8.33;;;6.27;;
3523;SDS011;1776;53.330;11.498;2023-06-10T14:00:28;7.83;;;6.77;;
3523;SDS011;1776;53.330;11.498;2023-06-10T14:02:53;6.20;;;5.57;;
3523;SDS011;1776;53.330;11.498;2023-06-10T14:05:19;7.30;;;6.50;;
3523;SDS011;1776;53.330;11.498;2023-06-10T14:07:44;7.17;;;6.23;;
3523;SDS011;1776;53.330;11.498;2023-06-10T14:10:09;7.43;;;5.90;;
3523;SDS011;1776;53.330;11.498;2023-06-10T14:12:35;7.00;;;5.93;;
3523;SDS011;1776;53.330;11.498;2023-06-10T14:15:00;8.20;;;6.10;;
3523;SDS011;1776;53.330;11.498;2023-06-10T14:17:26;6.90;;;6.20;;
3523;SDS011;1776;53.330;11.498;2023-06-10T14:19:51;6.73;;;6.10;;
3523;SDS011;1776;53.330;11.498;2023-06-10T14:22:17;7.00;;;6.40;;
3523;SDS011;1776;53.330;11.498;2023-06-10T14:24:42;10.93;;;6.47;;
3523;SDS011;1776;53.330;11.498;2023-06-10T14:27:07;7.50;;;6.80;;
3523;SDS011;1776;53.330;11.498;2023-06-10T14:29:32;8.83;;;6.97;;
3523;SDS011;1776;53.330;11.498;2023-06-10T14:31:58;6.97;;;6.27;;
3523;SDS011;1776;53.330;11.498;2023-06-10T14:34:24;7.23;;;6.07;;
3523;SDS011;1776;53.330;11.498;2023-06-10T14:36:53;7.33;;;6.63;;
3523;SDS011;1776;53.330;11.498;2023-06-10T14:39:19;7.70;;;6.70;;
3523;SDS011;1776;53.330;11.498;2023-06-10T14:41:44;7.77;;;6.27;;
3523;SDS011;1776;53.330;11.498;2023-06-10T14:44:10;7.43;;;6.67;;
3523;SDS011;1776;53.330;11.498;2023-06-10T14:46:35;6.40;;;5.80;;
3523;SDS011;1776;53.330;11.498;2023-06-10T14:49:00;7.20;;;6.50;;
3523;SDS011;1776;53.330;11.498;2023-06-10T14:51:27;6.20;;;5.60;;
3523;SDS011;1776;53.330;11.498;2023-06-10T14:53:52;7.43;;;6.13;;
3523;SDS011;1776;53.330;11.498;2023-06-10T14:56:17;6.93;;;6.30;;
3523;SDS011;1776;53.330;11.498;2023-06-10T14:58:43;10.50;;;6.10;;
3523;SDS011;1776;53.330;11.498;2023-06-10T15:01:08;9.77;;;7.20;;
3523;SDS011;1776;53.330;11.498;2023-06-10T15:03:33;10.03;;;6.20;;
3523;SDS011;1776;53.330;11.498;2023-06-10T15:05:59;7.93;;;7.00;;
3523;SDS011;1776;53.330;11.498;2023-06-10T15:08:25;9.40;;;6.80;;
3523;SDS011;1776;53.330;11.498;2023-06-10T15:10:51;7.10;;;5.93;;
3523;SDS011;1776;53.330;11.498;2023-06-10T15:13:16;7.70;;;6.90;;